Weather observations for the past three days for
Baltimore / Martin
Imperial (Metric)
Date Time (edt) Wind (mph) Vis. (mi.) Weather Sky Cond. Temperature (ºF) Relative Humidity Wind Chill (°F) Heat Index (°F) Pressure Precipitation (in)
Air Dwpt 6 hour altimeter (in) sea level (mb) 1 hr 3 hr 6 hr
Max. Min.
06 12:45 SW 8 10.00 Overcast OVC018 64.4 59 83% 29.82 0.0
06 11:48 S 10 6.00 Light Drizzle BKN017 OVC060 64.4 60.8 88% 29.83 0.0
06 10:45 S 7 6.00 Light Rain BKN060 OVC100 64.4 57.2 78% 29.85 0.0
06 09:50 SW 7 6.00 Light Rain SCT031 BKN060 OVC100 64.4 57.2 78% 29.86 0.0
06 08:45 S 7 10.00 Light Rain BKN035 OVC110 66.2 55.4 68% 29.85 0.0
06 07:56 S 9 10.00 Overcast OVC100 66.2 57.2 73% 29.86 0.0
06 06:45 S 9 10.00 Partly Cloudy SCT110 64.4 57.2 78% 29.84 0.0
06 05:45 S 8 10.00 Fair CLR 64.4 55.4 73% 29.84 0.0
06 05:15 S 12 G 16 10.00 Partly Cloudy SCT120 64.6 56.1 74% 29.83 0.0
06 04:55 S 10 10.00 Fair CLR 64.6 56.1 74% 29.84 0.0
06 04:35 S 14 10.00 Fair CLR 64.8 56.3 74% 29.84 0.0
06 04:15 S 13 10.00 Fair CLR 65.3 56.3 73% 29.83 0.0
06 03:55 S 13 10.00 Fair CLR 65.5 56.5 73% 29.84 0.0
06 03:35 S 13 10.00 Fair CLR 65.3 56.7 74% 29.84 0.0
06 03:15 S 12 10.00 Partly Cloudy SCT120 66.2 56.5 71% 29.84 0.0
06 02:55 S 10 10.00 Fair CLR 66.6 56.3 70% 29.85 0.0
06 02:35 S 8 10.00 Fair CLR 66.7 55.4 67% 29.85 0.0
06 02:15 S 8 10.00 Fair CLR 66.7 54.9 66% 29.85 0.0
06 01:55 S 8 10.00 Fair CLR 66.4 54.7 70.7 66.4 66% 29.86 0.0
06 01:35 S 8 10.00 Fair CLR 66.6 54.9 66% 29.86 0.0
06 01:15 S 10 10.00 Fair CLR 68 53.6 60% 29.86 0.0
06 00:55 S 10 10.00 Fair CLR 68 53.8 61% 29.86 0.0
06 00:35 S 10 10.00 Fair CLR 67.5 53.6 61% 29.86 0.0
06 00:15 S 9 10.00 Fair CLR 67.5 53.4 61% 29.86 0.0
05 23:55 S 9 10.00 Fair CLR 68.2 52.3 57% 29.86 0.0
05 23:35 S 8 10.00 Fair CLR 69.4 51.1 52% 29.86 0.0
05 23:15 S 10 10.00 Fair CLR 69.1 51.3 53% 29.86 0.0
05 22:55 S 10 10.00 Fair CLR 70 50.4 50% 29.86 0.0
05 22:35 S 9 10.00 Fair CLR 68.7 50.5 52% 29.86 0.0
05 22:15 S 8 10.00 Fair CLR 68.4 51.4 55% 29.86 0.0
05 21:45 S 8 10.00 Fair CLR 69.8 50 50% 29.86 0.0
05 20:50 S 12 10.00 Fair CLR 69.8 53.6 57% 29.84 0.0
05 19:49 S 10 10.00 Fair CLR 71.6 51.8 50% 29.82 0.0
05 18:59 S 12 10.00 Fair CLR 73.4 50 44% 29.82 0.0
05 17:47 S 12 10.00 Fair CLR 78.8 46.4 32% 79 29.82 0.0
05 16:50 S 15 10.00 Fair CLR 78.8 50 37% 79 29.82 0.0
05 15:55 S 17 G 24 10.00 Fair CLR 78.8 50 37% 79 29.82 0.0
05 14:45 S 17 10.00 Fair CLR 78.8 50 37% 79 29.85 0.0
05 12:53 S 15 G 20 10.00 Fair CLR 75.2 51.8 44% 78 29.88 0.0
05 11:54 S 13 10.00 Fair CLR 73.4 51.8 47% 29.91 0.0
05 10:45 S 10 10.00 Fair CLR 71.6 51.8 50% 29.91 0.0
05 09:45 SW 6 10.00 Fair CLR 71.6 46.4 41% 29.91 0.0
05 08:45 SW 5 10.00 Fair CLR 68 44.6 43% 29.92 0.0
05 07:45 SW 5 10.00 Fair CLR 64.4 44.6 49% 29.91 0.0
05 06:45 Calm 10.00 Fair CLR 59 48.2 68% 29.89 0.0
05 05:54 SW 5 10.00 Fair CLR 60.8 44.6 55% 29.88 0.0
05 05:15 SW 5 10.00 Fair CLR 62.1 44.1 52% 29.87 0.0
05 04:55 W 5 10.00 Fair CLR 61.7 44.6 54% 29.87 0.0
05 04:35 W 3 10.00 Fair CLR 61.5 45.5 56% 29.87 0.0
05 04:15 SW 3 10.00 Fair CLR 60.3 47.5 63% 29.87 0.0
05 03:35 SW 5 10.00 Fair CLR 61 49.1 65% 29.87 0.0
05 03:15 S 6 10.00 Fair CLR 60.8 50.9 70% 29.87 0.0
05 02:55 S 6 10.00 Fair CLR 61 50.7 69% 29.87 0.0
05 02:35 S 7 10.00 Partly Cloudy SCT120 60.8 52 73% 29.87 0.0
05 02:15 Calm 10.00 Mostly Cloudy BKN120 61.5 46.4 58% 29.87 0.0
05 01:55 Calm 10.00 Partly Cloudy SCT120 61.9 47.5 67.8 61 59% 29.87 0.0
05 01:35 S 3 10.00 Partly Cloudy SCT110 62.1 48.2 61% 29.87 0.0
05 01:15 S 5 10.00 Fair CLR 61.9 48.6 62% 29.87 0.0
05 00:55 S 5 10.00 Fair CLR 61.9 48.6 62% 29.87 0.0
05 00:35 Calm 10.00 Fair CLR 62.1 49.6 64% 29.87 0.0
05 00:15 S 3 10.00 Fair CLR 61 51.3 71% 29.87 0.0
04 23:55 S 3 10.00 Fair CLR 62.2 49.8 64% 29.86 0.0
04 23:35 S 5 10.00 Fair CLR 63.5 49.5 60% 29.86 0.0
04 23:15 S 7 10.00 Fair CLR 64 49.1 58% 29.86 0.0
04 22:55 S 9 10.00 Fair CLR 65.3 48.6 55% 29.86 0.0
04 22:35 S 14 10.00 Fair CLR 66.2 47.3 51% 29.86 0.0
04 22:15 S 14 G 20 10.00 Fair CLR 66.4 46 48% 29.86 0.0
04 21:47 SW 8 10.00 Fair CLR 66.2 46.4 49% 29.86 0.0
04 20:48 S 8 G 17 10.00 Partly Cloudy SCT095 66.2 46.4 49% 29.85 0.0
04 18:47 SW 14 G 22 10.00 Fair CLR 71.6 39.2 31% 29.84 0.0
04 17:45 S 14 G 20 10.00 Fair CLR 73.4 41 31% 29.84 0.0
04 16:53 S 14 10.00 Fair CLR 73.4 41 31% 29.85 0.0
04 15:45 S 12 10.00 Fair CLR 71.6 42.8 36% 29.88 0.0
04 14:46 S 10 10.00 Fair CLR 71.6 39.2 31% 29.91 0.0
04 13:45 S 10 10.00 Fair CLR 69.8 41 35% 29.93 0.0
04 12:55 SE 8 10.00 Fair CLR 68 42.8 40% 29.94 0.0
04 11:46 S 8 10.00 Fair CLR 66.2 42.8 43% 29.96 0.0
04 10:50 SE 6 10.00 Fair CLR 64.4 37.4 37% 29.98 0.0
04 09:50 S 6 10.00 Fair CLR 60.8 37.4 42% 29.99 0.0
04 08:45 SW 8 10.00 Fair CLR 57.2 35.6 44% 29.99 0.0
04 07:45 SW 5 10.00 Fair CLR 55.4 37.4 51% 30 0.0
04 06:48 SW 5 10.00 Mostly Cloudy BKN100 51.8 37.4 58% 30 0.0
04 05:45 Calm 10.00 Mostly Cloudy BKN110 48.2 37.4 66% 30.01 0.0
04 05:15 Calm 10.00 Mostly Cloudy BKN100 51.6 36.7 57% 30.01 0.0
04 04:55 Calm 10.00 Overcast OVC110 51.6 36.9 57% 30.01 0.0
04 04:35 Calm 10.00 Partly Cloudy SCT120 52.3 35.4 53% 30.01 0.0
04 04:15 W 3 10.00 Fair CLR 51.8 34.5 52% 30.01 0.0
04 03:55 W 3 10.00 Fair CLR 52 34.2 51% 30.01 0.0
04 03:35 W 3 10.00 Fair CLR 52.2 34.2 50% 30.01 0.0
04 03:15 W 3 10.00 Fair CLR 52 33.8 50% 30.01 0.0
04 02:55 Calm 10.00 Fair CLR 51.3 34.3 53% 30.01 0.0
04 02:35 Calm 10.00 Fair CLR 48.6 35.4 61% 30.01 0.0
04 02:17 Calm 10.00 Fair CLR 47.5 35.8 64% 30.02 0.0
04 01:55 Calm 10.00 Fair CLR 48.2 35.6 59.4 43.9 62% 30.02 0.0
04 01:35 Calm 10.00 Fair CLR 48.2 34.9 60% 30.01 0.0
04 01:15 W 3 10.00 Fair CLR 52 32.2 47% 30.01 0.0
04 00:55 Calm 10.00 Fair CLR 46.8 36.7 68% 30.02 0.0
04 00:35 Calm 10.00 Fair CLR 46.2 37 70% 30.02 0.0
04 00:15 Calm 10.00 Fair CLR 47.8 35.8 63% 30.01 0.0
03 23:55 Calm 10.00 Fair CLR 47.7 34.5 60% 30.01 0.0
03 23:35 Calm 10.00 Fair CLR 47.1 34.7 62% 30 0.0
03 23:15 Calm 10.00 Fair CLR 48.7 34.7 59% 30 0.0
03 22:55 Calm 10.00 Fair CLR 49.6 36 59% 30 0.0
03 22:35 Calm 10.00 Fair CLR 49.8 37.9 64% 30 0.0
03 22:15 Calm 10.00 Fair CLR 49.8 36.9 61% 30 0.0
03 21:45 Calm 10.00 Fair CLR 51.8 35.6 54% 29.99 0.0
03 20:45 Calm 10.00 Fair CLR 53.6 28.4 38% 29.98 0.0
03 19:54 NW 3 10.00 Fair CLR 59 23 25% 29.97 0.0
03 18:45 NW 12 10.00 Fair CLR 62.6 21.2 20% 29.96 0.0
03 17:54 NW 13 G 22 10.00 Fair CLR 62.6 19.4 19% 29.96 0.0
03 16:54 NW 15 G 23 10.00 Fair CLR 62.6 19.4 19% 29.96 0.0
03 15:54 W 14 G 25 10.00 Fair CLR 60.8 21.2 22% 29.98 0.0
03 14:54 NW 15 G 22 10.00 Partly Cloudy SCT075 60.8 23 23% 29.99 0.0
03 14:45 NW 13 G 20 10.00 Partly Cloudy SCT075 60.8 23 23% 30 0.0
03 13:47 NW 13 G 21 10.00 Partly Cloudy SCT075 59 23 25% 30.01 0.0
Date Time (edt) Wind (mph) Vis. (mi.) Weather Sky Cond. Air Dwpt Max. Min. Relative Humidity Wind Chill (°F) Heat Index (°F) altimeter (in) sea level (mb) 1 hr 3 hr 6 hr
6 hour
Temperature (ºF) Pressure Precipitation (in)